Walhalla, Michigan
Current Conditions -  °F | °C
As of 7:55 PM on Saturday 25 Oct 2014 (Local Time) from KLDM Reporting Station
Clear Clear  
Wind Chill: 55°   Ceiling: Unl
Heat Index: 55°   Visibility: 10mi
Dew Point: 44°   Wind: 9mph
Humidity: 67%   Direction: 290°WNW
Pressure: 29.83"   Gusts: NA
Location:  43.95°N, 86.11°W
Report Text: KLDM 252355Z AUTO 29008KT 10SM CLR 13/07 A2983 RMK AO2 T01250066 10152 20125
Loading
Personal Weather Stations






























Interactive Weather Map
Tropical Storm Tracking
New forecast layout! Learn more

10-Day Weather Forecast

Advertisements
Track Severe Weather on mobile